Time;durP1;ratioP1;P1;durP2;ratioP2;P2;SDS_P1;SDS_P2;PMS_P1;PMS_P2;Temp;Humidity;BMP_temperature;BMP_pressure;BME280_temperature;BME280_humidity;BME280_pressure;Samples;Min_cycle;Max_cycle;Signal;HPM_P1;HPM_P2
2021/04/26 00:00:58;;;;;;;3.27;1.90;;;1.80;95.40;;;;;;4939648;29;20916;-86
2021/04/26 00:03:24;;;;;;;2.60;1.87;;;1.80;95.50;;;;;;4939213;29;20230;-87
2021/04/26 00:05:49;;;;;;;2.70;1.93;;;1.80;95.30;;;;;;4939802;29;20494;-86
2021/04/26 00:08:15;;;;;;;4.93;2.00;;;1.80;95.00;;;;;;4956709;29;20185;-86
2021/04/26 00:10:41;;;;;;;2.63;1.93;;;1.80;95.10;;;;;;4939486;29;20182;-87
2021/04/26 00:13:07;;;;;;;2.80;2.00;;;1.70;95.30;;;;;;4939352;29;20207;-86
2021/04/26 00:15:33;;;;;;;4.63;2.93;;;1.70;95.40;;;;;;4939356;29;20183;-87
2021/04/26 00:17:59;;;;;;;4.97;2.40;;;1.70;95.70;;;;;;4938494;29;20450;-87
2021/04/26 00:20:27;;;;;;;2.50;2.20;;;1.70;96.30;;;;;;4938404;29;20190;-86
2021/04/26 00:22:55;;;;;;;4.83;2.30;;;1.60;96.60;;;;;;4938515;29;20202;-86
2021/04/26 00:25:21;;;;;;;3.07;2.10;;;1.60;96.80;;;;;;4939014;29;20458;-86
2021/04/26 00:27:47;;;;;;;4.70;2.57;;;1.50;96.60;;;;;;4942471;29;20429;-86
2021/04/26 00:30:17;;;;;;;4.03;2.40;;;1.50;96.60;;;;;;4958338;29;21053;-86
2021/04/26 00:32:43;;;;;;;3.20;2.20;;;1.40;96.60;;;;;;4959185;29;20466;-87
2021/04/26 00:35:10;;;;;;;2.37;2.17;;;1.40;96.60;;;;;;4942294;29;20434;-86
2021/04/26 00:37:36;;;;;;;4.73;2.10;;;1.30;96.70;;;;;;4941899;29;20973;-87
2021/04/26 00:40:03;;;;;;;7.17;3.27;;;1.30;96.90;;;;;;4942157;29;20454;-86
2021/04/26 00:42:29;;;;;;;7.37;2.10;;;1.30;96.90;;;;;;4941801;29;20442;-87
2021/04/26 00:44:54;;;;;;;3.67;2.27;;;1.20;96.90;;;;;;4941926;29;20423;-86
2021/04/26 00:47:20;;;;;;;3.43;2.03;;;1.20;96.90;;;;;;4941696;29;20218;-87
2021/04/26 00:49:46;;;;;;;2.70;2.13;;;1.10;96.70;;;;;;4941019;29;20179;-86
2021/04/26 00:52:11;;;;;;;5.80;2.00;;;1.00;96.70;;;;;;4940339;29;20203;-86
2021/04/26 00:54:37;;;;;;;3.83;2.30;;;1.00;96.40;;;;;;4940672;29;20187;-86
2021/04/26 00:57:03;;;;;;;2.70;2.30;;;0.90;96.60;;;;;;4940452;29;20536;-87
2021/04/26 00:59:29;;;;;;;2.80;2.27;;;0.90;96.90;;;;;;4940297;29;20647;-87
2021/04/26 01:01:55;;;;;;;2.47;1.90;;;0.90;96.80;;;;;;4940327;29;20207;-87
2021/04/26 01:04:21;;;;;;;2.40;2.20;;;0.90;97.00;;;;;;4940874;29;20857;-87
2021/04/26 01:06:46;;;;;;;3.53;2.20;;;0.90;97.20;;;;;;4940905;29;20215;-87
2021/04/26 01:09:12;;;;;;;3.57;2.23;;;0.80;97.00;;;;;;4940879;29;20941;-86
2021/04/26 01:12:04;;;;;;;5.30;1.90;;;0.80;96.80;;;;;;4940783;29;20234;-86
2021/04/26 01:15:02;;;;;;;3.03;2.20;;;0.80;96.90;;;;;;4940678;29;20175;-87
2021/04/26 01:17:33;;;;;;;4.60;2.30;;;0.80;97.10;;;;;;4940842;29;20458;-87
2021/04/26 01:20:41;;;;;;;2.97;2.30;;;0.70;97.10;;;;;;4940886;29;20453;-87
2021/04/26 01:23:21;;;;;;;3.80;2.30;;;0.70;97.20;;;;;;4940972;29;20540;-87
2021/04/26 01:25:49;;;;;;;7.00;2.10;;;0.70;97.30;;;;;;4940534;29;20546;-87
2021/04/26 01:28:33;;;;;;;4.43;2.47;;;0.70;96.90;;;;;;4940642;29;20419;-87
2021/04/26 01:31:13;;;;;;;2.73;2.10;;;0.70;96.60;;;;;;4940547;29;20481;-87
2021/04/26 01:33:44;;;;;;;3.43;2.33;;;0.70;96.80;;;;;;4940592;29;20419;-86
2021/04/26 01:36:12;;;;;;;3.40;2.20;;;0.70;97.10;;;;;;4957696;29;20403;-87
2021/04/26 01:38:43;;;;;;;3.00;2.03;;;0.70;97.10;;;;;;4939202;29;20466;-87
2021/04/26 01:41:10;;;;;;;3.83;1.90;;;0.60;97.20;;;;;;4940252;29;20864;-87
2021/04/26 01:43:37;;;;;;;4.53;1.93;;;0.50;97.30;;;;;;4940736;29;20434;-87
2021/04/26 01:46:06;;;;;;;6.40;2.47;;;0.50;97.30;;;;;;4941442;29;20454;-87
2021/04/26 01:48:35;;;;;;;3.13;1.87;;;0.40;97.30;;;;;;4941719;29;20415;-87
2021/04/26 01:51:03;;;;;;;2.40;2.00;;;0.40;97.30;;;;;;4941569;29;21001;-84
2021/04/26 01:53:29;;;;;;;2.80;2.00;;;0.30;97.30;;;;;;4958252;29;20428;-87
2021/04/26 01:56:00;;;;;;;4.93;2.30;;;0.30;97.30;;;;;;4940407;29;20430;-87
2021/04/26 01:58:26;;;;;;;6.37;2.43;;;0.30;97.30;;;;;;4940256;29;20430;-87
2021/04/26 02:00:52;;;;;;;3.70;2.33;;;0.20;97.30;;;;;;4940192;29;20433;-87
2021/04/26 02:03:23;;;;;;;2.77;2.10;;;0.10;97.30;;;;;;4940613;29;20443;-87
2021/04/26 02:05:52;;;;;;;2.97;2.20;;;0.10;97.30;;;;;;4957840;29;20835;-87
2021/04/26 02:08:18;;;;;;;2.67;1.93;;;0.00;97.30;;;;;;4940239;29;20959;-87
2021/04/26 02:10:47;;;;;;;7.27;2.10;;;0.00;97.30;;;;;;4940009;29;20422;-87
2021/04/26 02:13:21;;;;;;;4.50;2.17;;;0.00;97.30;;;;;;4939196;29;20438;-87
2021/04/26 02:15:50;;;;;;;7.73;2.13;;;0.00;97.30;;;;;;4938925;29;20430;-87
2021/04/26 02:18:16;;;;;;;3.00;2.13;;;-0.10;97.30;;;;;;4939810;29;21074;-87
2021/04/26 02:20:41;;;;;;;2.57;2.03;;;-0.10;97.30;;;;;;4939666;29;20514;-88
2021/04/26 02:23:07;;;;;;;3.53;2.47;;;-0.10;97.30;;;;;;4940135;29;20663;-88
2021/04/26 02:25:33;;;;;;;5.13;2.70;;;-0.20;97.30;;;;;;4939979;29;20289;-87
2021/04/26 02:27:59;;;;;;;2.47;2.27;;;-0.20;97.30;;;;;;4940783;29;20525;-87
2021/04/26 02:30:27;;;;;;;4.87;2.20;;;-0.20;97.30;;;;;;4957244;29;20418;-87
2021/04/26 02:33:04;;;;;;;1.90;1.80;;;-0.20;97.30;;;;;;4947843;29;20203;-87
2021/04/26 02:35:36;;;;;;;3.67;2.43;;;-0.20;97.30;;;;;;4959073;28;20428;-87
2021/04/26 02:38:17;;;;;;;4.50;2.40;;;-0.20;97.30;;;;;;4958946;28;20425;-87
2021/04/26 02:40:52;;;;;;;3.87;2.63;;;-0.20;97.30;;;;;;4958463;28;20429;-87
2021/04/26 02:43:19;;;;;;;7.80;2.50;;;-0.30;97.30;;;;;;4973575;28;20543;-87
2021/04/26 02:45:50;;;;;;;2.50;2.10;;;-0.30;97.30;;;;;;4975717;28;20449;-87
2021/04/26 02:48:16;;;;;;;4.70;2.87;;;-0.30;97.30;;;;;;4958676;28;20410;-87
2021/04/26 02:50:43;;;;;;;2.20;2.10;;;-0.30;97.30;;;;;;4942775;28;20500;-87
2021/04/26 02:53:14;;;;;;;4.00;2.60;;;-0.30;97.30;;;;;;4976246;28;20500;-87
2021/04/26 02:55:42;;;;;;;3.87;2.37;;;-0.40;97.30;;;;;;4959113;28;20955;-87
2021/04/26 02:58:07;;;;;;;4.80;2.60;;;-0.40;97.30;;;;;;4958746;28;20422;-87
2021/04/26 03:00:34;;;;;;;3.97;2.13;;;-0.30;97.30;;;;;;4959001;28;20963;-87
2021/04/26 03:03:01;;;;;;;4.80;2.40;;;-0.30;97.30;;;;;;4958736;28;20216;-87
2021/04/26 03:05:27;;;;;;;3.73;2.30;;;-0.40;97.30;;;;;;4958496;28;20992;-87
2021/04/26 03:07:54;;;;;;;2.83;2.00;;;-0.40;97.30;;;;;;4958897;28;20409;-87
2021/04/26 03:10:20;;;;;;;3.10;2.03;;;-0.40;97.30;;;;;;4959067;28;20418;-87
2021/04/26 03:12:51;;;;;;;5.30;2.33;;;-0.50;97.30;;;;;;4975462;28;20439;-87
2021/04/26 03:15:20;;;;;;;3.70;2.10;;;-0.50;97.30;;;;;;4957366;28;20426;-86
2021/04/26 03:17:47;;;;;;;4.20;2.47;;;-0.50;97.30;;;;;;4957500;28;20835;-87
2021/04/26 03:20:15;;;;;;;5.53;3.07;;;-0.50;97.30;;;;;;4958609;28;20422;-87
2021/04/26 03:22:43;;;;;;;7.93;2.57;;;-0.60;97.30;;;;;;4959080;28;20438;-88
2021/04/26 03:25:10;;;;;;;7.20;2.90;;;-0.60;97.30;;;;;;4976779;28;20442;-87
2021/04/26 03:27:37;;;;;;;5.60;2.60;;;-0.60;97.30;;;;;;4962988;28;20425;-86
2021/04/26 03:30:05;;;;;;;5.10;2.40;;;-0.60;97.30;;;;;;4975101;28;20446;-87
2021/04/26 03:32:31;;;;;;;4.63;2.50;;;-0.60;97.30;;;;;;4973162;28;20512;-87
2021/04/26 03:34:57;;;;;;;4.70;2.33;;;-0.70;97.30;;;;;;4957332;28;20457;-87
2021/04/26 03:37:23;;;;;;;5.03;2.90;;;-0.70;97.30;;;;;;4957092;28;20974;-86
2021/04/26 03:39:49;;;;;;;4.80;2.77;;;-0.70;97.30;;;;;;4957292;28;20417;-87
2021/04/26 03:45:12;;;;;;;2.73;2.60;;;-0.70;97.30;;;;;;4953199;29;20526;-87
2021/04/26 03:47:40;;;;;;;4.87;2.93;;;-0.70;97.30;;;;;;4937097;29;20435;-88
2021/04/26 03:50:06;;;;;;;7.60;2.50;;;-0.70;97.30;;;;;;4938453;29;20493;-87
2021/04/26 03:52:32;;;;;;;2.70;2.50;;;-0.70;97.30;;;;;;4938772;29;20419;-88
2021/04/26 03:54:57;;;;;;;5.87;3.47;;;-0.80;97.30;;;;;;4938648;29;20501;-88
2021/04/26 03:57:23;;;;;;;3.47;2.37;;;-0.80;97.30;;;;;;4938421;29;20250;-87
2021/04/26 03:59:48;;;;;;;3.90;2.60;;;-0.80;97.30;;;;;;4938474;29;20177;-88
2021/04/26 04:02:14;;;;;;;4.20;2.90;;;-0.80;97.30;;;;;;4938724;29;20189;-88
2021/04/26 04:04:40;;;;;;;5.60;2.50;;;-0.80;97.30;;;;;;4937962;29;20235;-88
2021/04/26 04:07:06;;;;;;;2.90;2.47;;;-0.80;97.30;;;;;;4938211;29;20602;-88
2021/04/26 04:09:31;;;;;;;5.73;2.87;;;-0.80;97.30;;;;;;4955728;29;20415;-88
2021/04/26 04:11:57;;;;;;;3.33;2.93;;;-0.90;97.30;;;;;;4938174;29;20181;-87
2021/04/26 04:14:23;;;;;;;2.60;2.40;;;-0.90;97.30;;;;;;4938199;29;20195;-88
2021/04/26 04:16:48;;;;;;;4.10;2.37;;;-0.90;97.30;;;;;;4938377;29;20179;-88
2021/04/26 04:19:14;;;;;;;3.57;2.07;;;-0.90;97.30;;;;;;4955232;29;20175;-88
2021/04/26 04:21:39;;;;;;;7.93;2.70;;;-0.90;97.30;;;;;;4938100;29;20245;-88
2021/04/26 04:24:06;;;;;;;5.57;2.40;;;-0.90;97.30;;;;;;4937949;29;20210;-87
2021/04/26 04:26:32;;;;;;;3.50;2.13;;;-0.90;97.30;;;;;;4937964;29;20200;-87
2021/04/26 04:28:58;;;;;;;3.00;2.40;;;-0.90;97.30;;;;;;4954988;29;20466;-87
2021/04/26 04:31:24;;;;;;;2.87;2.30;;;-0.90;97.30;;;;;;4938042;29;20415;-87
2021/04/26 04:33:49;;;;;;;3.20;2.57;;;-0.90;97.30;;;;;;4954582;29;20445;-87
2021/04/26 04:36:16;;;;;;;3.33;2.40;;;-0.80;97.30;;;;;;4937774;29;20190;-87
2021/04/26 04:38:41;;;;;;;4.90;2.50;;;-0.80;97.30;;;;;;4937590;29;20677;-87
2021/04/26 04:41:07;;;;;;;2.67;2.20;;;-0.70;97.30;;;;;;4954933;29;20418;-87
2021/04/26 04:43:33;;;;;;;4.13;2.33;;;-0.70;97.30;;;;;;4938296;29;20235;-87
2021/04/26 04:45:59;;;;;;;3.27;2.10;;;-0.60;97.30;;;;;;4938831;29;20207;-87
2021/04/26 04:48:24;;;;;;;10.63;2.10;;;-0.50;97.30;;;;;;4938658;29;20426;-87
2021/04/26 04:50:50;;;;;;;2.07;1.83;;;-0.50;97.30;;;;;;4939095;29;20180;-87
2021/04/26 04:53:16;;;;;;;5.37;2.17;;;-0.40;97.30;;;;;;4955638;29;20660;-87
2021/04/26 04:55:41;;;;;;;3.77;2.40;;;-0.40;97.30;;;;;;4939494;29;20187;-87
2021/04/26 04:58:07;;;;;;;4.13;2.40;;;-0.30;97.30;;;;;;4938723;29;20193;-86
2021/04/26 05:00:33;;;;;;;2.20;2.00;;;-0.30;97.30;;;;;;4954825;29;20183;-88
2021/04/26 05:02:58;;;;;;;3.37;2.50;;;-0.30;97.30;;;;;;4938408;29;20203;-85
2021/04/26 05:05:24;;;;;;;4.00;2.47;;;-0.20;97.30;;;;;;4938889;29;20534;-87
2021/04/26 05:07:50;;;;;;;2.00;1.90;;;-0.10;97.30;;;;;;4939704;29;20199;-87
2021/04/26 05:10:15;;;;;;;4.80;2.53;;;0.00;97.30;;;;;;4938835;29;20198;-87
2021/04/26 05:12:41;;;;;;;4.10;2.00;;;0.10;97.30;;;;;;4941139;29;20179;-87
2021/04/26 05:15:07;;;;;;;2.57;2.07;;;0.20;97.30;;;;;;4942229;29;20185;-87
2021/04/26 05:17:33;;;;;;;2.43;2.27;;;0.20;97.30;;;;;;4942039;29;20187;-87
2021/04/26 05:20:00;;;;;;;2.90;2.37;;;0.30;97.30;;;;;;4942639;29;20432;-87
2021/04/26 05:22:26;;;;;;;6.73;2.70;;;0.40;97.30;;;;;;4941277;29;20190;-87
2021/04/26 05:24:53;;;;;;;2.73;2.40;;;0.50;97.30;;;;;;4941083;29;20434;-87
2021/04/26 05:27:19;;;;;;;3.40;2.30;;;0.70;97.30;;;;;;4940769;29;20454;-87
2021/04/26 05:29:44;;;;;;;4.57;2.60;;;0.80;97.30;;;;;;4941144;29;20511;-87
2021/04/26 05:32:10;;;;;;;7.33;3.60;;;0.90;97.30;;;;;;4940999;29;20447;-87
2021/04/26 05:34:36;;;;;;;6.33;2.90;;;1.00;97.30;;;;;;4940566;29;20231;-88
2021/04/26 05:37:01;;;;;;;3.67;2.40;;;1.10;97.30;;;;;;4941109;29;20183;-87
2021/04/26 05:39:27;;;;;;;3.83;2.40;;;1.20;97.30;;;;;;4940289;29;20183;-87
2021/04/26 05:41:53;;;;;;;3.10;2.10;;;1.30;97.30;;;;;;4940635;29;20179;-88
2021/04/26 05:44:19;;;;;;;8.63;2.60;;;1.40;96.80;;;;;;4939636;29;20231;-88
2021/04/26 05:46:45;;;;;;;3.43;2.63;;;1.50;95.90;;;;;;4940396;29;20447;-87
2021/04/26 05:49:10;;;;;;;3.00;2.00;;;1.70;95.10;;;;;;4940521;29;20175;-88
2021/04/26 05:51:36;;;;;;;9.17;1.90;;;1.90;94.80;;;;;;4940881;29;20419;-87
2021/04/26 05:54:02;;;;;;;13.87;3.80;;;2.00;94.00;;;;;;4960329;29;20683;-88
2021/04/26 05:56:27;;;;;;;6.50;2.33;;;2.20;92.70;;;;;;4941688;29;20183;-88
2021/04/26 05:58:53;;;;;;;4.00;2.37;;;2.30;93.40;;;;;;4940098;29;20183;-89
2021/04/26 06:01:18;;;;;;;4.73;2.63;;;2.50;93.50;;;;;;4940538;29;20234;-88
2021/04/26 06:03:44;;;;;;;4.63;2.33;;;2.70;93.70;;;;;;4957886;28;20204;-88
2021/04/26 06:06:10;;;;;;;5.63;2.50;;;2.90;93.70;;;;;;4940771;29;20214;-88
2021/04/26 06:08:35;;;;;;;6.47;2.07;;;3.00;93.60;;;;;;4958702;28;20168;-88
2021/04/26 06:11:01;;;;;;;4.03;2.30;;;3.20;92.60;;;;;;4960031;29;20496;-88
2021/04/26 06:13:27;;;;;;;4.30;1.90;;;3.40;91.30;;;;;;4940261;29;20207;-88
2021/04/26 06:15:52;;;;;;;7.00;2.17;;;3.60;88.50;;;;;;4939576;29;20183;-88
2021/04/26 06:18:21;;;;;;;8.80;2.73;;;3.80;86.50;;;;;;4939888;29;20194;-88
2021/04/26 06:20:50;;;;;;;2.33;1.80;;;4.00;86.60;;;;;;4939377;29;20274;-87
2021/04/26 06:23:17;;;;;;;2.63;1.87;;;4.10;85.20;;;;;;4938159;29;20470;-88
2021/04/26 06:25:44;;;;;;;3.70;2.07;;;4.30;85.00;;;;;;4939309;29;20465;-87
2021/04/26 06:28:13;;;;;;;3.00;2.30;;;4.40;84.70;;;;;;4938911;29;20425;-88
2021/04/26 06:30:41;;;;;;;8.27;2.30;;;4.50;85.20;;;;;;4939479;29;20522;-88
2021/04/26 06:33:08;;;;;;;1.83;1.63;;;4.60;84.60;;;;;;4938503;28;20494;-88
2021/04/26 06:35:35;;;;;;;2.07;1.37;;;4.80;84.00;;;;;;4939030;29;20423;-87
2021/04/26 06:38:00;;;;;;;2.80;1.60;;;4.90;84.10;;;;;;4939293;29;20445;-88
2021/04/26 06:40:26;;;;;;;3.27;1.60;;;5.10;82.90;;;;;;4939601;29;20423;-88
2021/04/26 06:42:52;;;;;;;2.40;1.50;;;5.20;82.60;;;;;;4938738;29;20738;-88
2021/04/26 06:45:21;;;;;;;4.87;1.60;;;5.30;81.60;;;;;;4956188;29;20186;-87
2021/04/26 06:47:54;;;;;;;2.20;1.40;;;5.40;80.90;;;;;;4955894;28;20214;-88
2021/04/26 06:50:21;;;;;;;2.13;1.80;;;5.50;80.20;;;;;;4938908;29;20502;-89
2021/04/26 06:52:47;;;;;;;2.10;1.40;;;5.60;79.60;;;;;;4938970;29;20458;-86
2021/04/26 06:55:13;;;;;;;5.23;1.30;;;5.80;79.90;;;;;;4938411;29;20442;-88
2021/04/26 06:57:39;;;;;;;3.30;1.43;;;5.90;79.40;;;;;;4938824;29;20410;-88
2021/04/26 07:00:06;;;;;;;1.83;1.73;;;6.00;78.00;;;;;;4938769;29;20426;-88
2021/04/26 07:02:32;;;;;;;2.70;1.83;;;6.10;78.10;;;;;;4938443;29;20199;-88
2021/04/26 07:04:58;;;;;;;3.43;1.47;;;6.20;77.40;;;;;;4938733;29;20452;-86
2021/04/26 07:07:24;;;;;;;2.23;1.60;;;6.40;78.00;;;;;;4938759;29;20296;-88
2021/04/26 07:09:50;;;;;;;3.40;1.70;;;6.50;77.50;;;;;;4955595;29;20171;-88
2021/04/26 07:12:16;;;;;;;3.53;1.63;;;6.50;77.00;;;;;;4938225;29;20552;-88
2021/04/26 07:14:42;;;;;;;13.53;1.87;;;6.60;77.50;;;;;;4938171;29;20435;-87
2021/04/26 07:17:08;;;;;;;2.17;1.47;;;6.70;77.80;;;;;;4938303;29;20530;-88
2021/04/26 07:19:34;;;;;;;4.23;1.80;;;6.70;77.20;;;;;;4938622;29;20191;-88
2021/04/26 07:21:59;;;;;;;2.10;1.67;;;6.80;77.50;;;;;;4938400;29;20184;-87
2021/04/26 07:24:25;;;;;;;3.23;1.70;;;6.80;77.20;;;;;;4938435;29;20438;-88
2021/04/26 07:26:51;;;;;;;2.90;1.60;;;6.90;77.50;;;;;;4938227;29;20673;-86
2021/04/26 07:29:16;;;;;;;3.57;1.97;;;7.00;78.50;;;;;;4938632;29;20179;-88
2021/04/26 07:31:42;;;;;;;7.20;1.90;;;7.20;78.80;;;;;;4939167;29;20175;-87
2021/04/26 07:34:08;;;;;;;4.67;1.90;;;7.20;78.00;;;;;;4939186;29;20327;-88
2021/04/26 07:36:33;;;;;;;3.30;2.47;;;7.30;77.80;;;;;;4944298;29;20464;-88
2021/04/26 07:38:59;;;;;;;5.07;2.10;;;7.40;77.50;;;;;;4945045;29;20187;-88
2021/04/26 07:41:25;;;;;;;3.53;1.90;;;7.40;77.80;;;;;;4942902;29;20528;-88
2021/04/26 07:43:50;;;;;;;2.60;1.87;;;7.50;77.60;;;;;;4938006;29;20270;-88
2021/04/26 07:46:16;;;;;;;3.93;2.47;;;7.60;76.40;;;;;;4937505;29;20276;-88
2021/04/26 07:48:41;;;;;;;4.43;2.27;;;7.70;76.70;;;;;;4938205;29;20171;-87
2021/04/26 07:51:07;;;;;;;4.50;2.20;;;7.90;77.20;;;;;;4937671;29;20213;-88
2021/04/26 07:53:34;;;;;;;2.97;1.97;;;8.00;76.90;;;;;;4937667;29;20700;-88
2021/04/26 07:56:00;;;;;;;3.40;2.10;;;8.10;76.20;;;;;;4936773;29;20179;-88
2021/04/26 07:58:25;;;;;;;2.43;1.80;;;8.10;76.20;;;;;;4937745;29;20510;-88
2021/04/26 08:00:51;;;;;;;4.33;1.83;;;8.20;76.20;;;;;;4937226;29;20194;-88
2021/04/26 08:03:19;;;;;;;3.33;1.87;;;8.30;74.80;;;;;;4937540;29;20195;-88
2021/04/26 08:05:44;;;;;;;2.50;1.93;;;8.30;75.70;;;;;;4937830;29;20202;-88
2021/04/26 08:08:10;;;;;;;5.33;2.67;;;8.30;74.60;;;;;;4937822;29;20778;-88
2021/04/26 08:10:36;;;;;;;3.70;2.27;;;8.40;75.20;;;;;;4937545;29;20638;-88
2021/04/26 08:13:02;;;;;;;5.83;1.90;;;8.40;75.60;;;;;;4937381;29;20202;-88
2021/04/26 08:15:28;;;;;;;2.60;2.17;;;8.40;75.50;;;;;;4937657;29;20178;-89
2021/04/26 08:17:53;;;;;;;4.77;1.90;;;8.30;74.80;;;;;;4938529;29;20418;-88
2021/04/26 08:20:19;;;;;;;7.50;2.50;;;8.30;74.70;;;;;;4938279;29;20171;-88
2021/04/26 08:22:45;;;;;;;4.47;2.40;;;8.30;75.40;;;;;;4937935;29;20206;-88
2021/04/26 08:25:11;;;;;;;3.63;1.90;;;8.30;74.90;;;;;;4955305;29;20174;-88
2021/04/26 08:27:37;;;;;;;2.80;1.50;;;8.40;75.80;;;;;;4938351;29;20473;-88
2021/04/26 08:30:06;;;;;;;3.10;1.90;;;8.50;76.30;;;;;;4938240;29;20419;-86
2021/04/26 08:32:32;;;;;;;2.67;1.80;;;8.60;74.40;;;;;;4938504;29;20183;-88
2021/04/26 08:34:58;;;;;;;3.57;1.93;;;8.80;75.00;;;;;;4955275;29;20438;-88
2021/04/26 08:37:24;;;;;;;3.10;1.60;;;8.90;74.50;;;;;;4937880;29;20839;-88
2021/04/26 08:39:50;;;;;;;3.10;1.57;;;9.00;73.70;;;;;;4938379;29;20646;-88
2021/04/26 08:42:17;;;;;;;2.90;1.67;;;9.00;73.00;;;;;;4957550;29;20176;-88
2021/04/26 08:44:42;;;;;;;3.30;1.47;;;8.90;71.40;;;;;;4964791;29;20610;-88
2021/04/26 08:47:09;;;;;;;1.93;1.60;;;8.80;72.70;;;;;;4957078;29;20473;-88
2021/04/26 08:49:35;;;;;;;2.93;1.70;;;8.90;71.80;;;;;;4960224;29;20186;-91
2021/04/26 08:52:01;;;;;;;5.50;2.07;;;8.90;71.40;;;;;;4976502;28;20411;-87
2021/04/26 08:54:27;;;;;;;3.10;2.17;;;9.10;72.30;;;;;;4977289;28;20439;-87
2021/04/26 08:56:53;;;;;;;4.53;1.73;;;9.30;73.10;;;;;;4961336;28;20250;-86
2021/04/26 08:59:19;;;;;;;2.67;1.53;;;9.40;72.20;;;;;;4978112;29;20180;-91
2021/04/26 09:01:57;;;;;;;3.40;1.90;;;9.50;73.80;;;;;;4960866;29;20193;-88
2021/04/26 09:04:22;;;;;;;2.60;1.87;;;9.70;71.70;;;;;;4960547;29;20454;-86
2021/04/26 09:07:03;;;;;;;1.73;1.60;;;9.70;70.50;;;;;;4960479;29;20495;-86
2021/04/26 09:09:45;;;;;;;4.77;1.70;;;9.80;70.40;;;;;;4969128;28;20654;-85
2021/04/26 09:12:15;;;;;;;1.70;1.50;;;9.90;71.80;;;;;;4946102;29;20419;-85
2021/04/26 09:14:56;;;;;;;2.90;1.90;;;9.90;69.90;;;;;;4947695;29;20446;-86
2021/04/26 09:17:36;;;;;;;1.70;1.63;;;9.90;69.90;;;;;;4963278;29;20415;-88
2021/04/26 09:20:23;;;;;;;3.60;1.83;;;9.80;70.30;;;;;;4946590;29;20422;-88
2021/04/26 09:23:01;;;;;;;3.27;1.80;;;9.80;71.00;;;;;;4963209;29;20438;-88
2021/04/26 09:25:32;;;;;;;6.43;1.70;;;9.90;70.30;;;;;;4962413;29;20419;-88
2021/04/26 09:28:13;;;;;;;5.00;1.97;;;10.10;70.70;;;;;;4962292;28;20978;-85
2021/04/26 09:30:46;;;;;;;2.27;1.70;;;10.30;70.10;;;;;;4944456;29;20900;-85
2021/04/26 09:33:42;;;;;;;3.27;1.67;;;10.30;69.40;;;;;;4943830;29;20443;-85
2021/04/26 09:36:22;;;;;;;2.40;1.73;;;10.20;70.20;;;;;;4942302;29;20427;-86
2021/04/26 09:38:51;;;;;;;2.00;1.90;;;10.20;69.80;;;;;;4945466;29;20423;-85
2021/04/26 09:41:33;;;;;;;2.43;2.00;;;10.20;69.60;;;;;;4943281;29;20517;-88
2021/04/26 09:44:02;;;;;;;3.47;1.70;;;10.20;69.90;;;;;;4970298;23;20497;-76
2021/04/26 09:46:47;;;;;;;4.10;1.90;;;10.40;69.70;;;;;;4939118;28;21029;-78
2021/04/26 09:49:13;;;;;;;2.13;1.67;;;10.50;68.70;;;;;;4957503;28;20460;-76
2021/04/26 09:51:40;;;;;;;2.40;1.63;;;10.70;69.90;;;;;;4957795;28;20441;-76
2021/04/26 09:54:07;;;;;;;3.20;1.67;;;10.90;68.50;;;;;;4957269;28;20414;-77
2021/04/26 09:56:47;;;;;;;4.10;1.90;;;11.00;66.70;;;;;;4957522;28;20414;-76
2021/04/26 09:59:15;;;;;;;2.93;1.70;;;10.90;68.10;;;;;;4973832;28;20485;-76
2021/04/26 10:01:45;;;;;;;5.60;2.13;;;11.00;69.20;;;;;;4956602;28;20499;-77
2021/04/26 10:04:11;;;;;;;2.00;1.90;;;11.10;70.00;;;;;;4975245;28;20529;-76
2021/04/26 10:06:37;;;;;;;2.40;1.90;;;11.10;68.40;;;;;;4957704;28;20460;-76
2021/04/26 10:09:06;;;;;;;2.20;1.70;;;11.00;67.00;;;;;;4956660;28;20413;-76
2021/04/26 10:11:33;;;;;;;4.73;2.20;;;10.80;66.60;;;;;;4974929;28;20434;-76
2021/04/26 10:14:18;;;;;;;2.73;1.90;;;10.90;66.80;;;;;;4957349;28;20416;-76
2021/04/26 10:16:57;;;;;;;2.30;1.90;;;10.90;65.90;;;;;;4956970;28;20428;-77
2021/04/26 10:19:59;;;;;;;1.80;1.57;;;11.00;68.10;;;;;;4956923;28;20885;-77
2021/04/26 10:22:39;;;;;;;6.23;2.20;;;11.20;69.10;;;;;;4898728;29;20506;-75
2021/04/26 10:25:06;;;;;;;2.47;2.00;;;11.30;69.70;;;;;;4951681;28;20421;-77
2021/04/26 10:27:41;;;;;;;6.03;2.20;;;11.10;67.00;;;;;;4956711;28;20996;-76
2021/04/26 10:30:13;;;;;;;4.70;1.80;;;10.90;69.50;;;;;;4973809;28;20413;-76
2021/04/26 10:32:59;;;;;;;4.17;1.60;;;10.60;67.30;;;;;;4957260;28;20812;-77
2021/04/26 10:35:46;;;;;;;3.03;1.80;;;10.40;68.60;;;;;;4973992;28;21016;-77
2021/04/26 10:38:34;;;;;;;3.00;2.00;;;10.70;68.90;;;;;;4957001;28;20418;-76
2021/04/26 10:41:02;;;;;;;3.00;1.73;;;11.20;69.20;;;;;;4956793;28;20434;-76
2021/04/26 10:43:29;;;;;;;6.83;1.97;;;11.70;67.20;;;;;;4955984;28;20457;-77
2021/04/26 10:46:13;;;;;;;4.50;2.03;;;11.90;67.10;;;;;;4957279;28;20489;-76
2021/04/26 10:48:59;;;;;;;4.40;2.13;;;12.20;68.20;;;;;;4956743;28;20421;-77
2021/04/26 10:51:24;;;;;;;1.83;1.70;;;12.40;65.40;;;;;;4956336;28;20438;-76
2021/04/26 10:53:50;;;;;;;3.07;1.80;;;12.10;63.60;;;;;;4957237;28;20644;-76
2021/04/26 10:56:24;;;;;;;2.30;1.90;;;12.20;65.20;;;;;;4973571;28;20178;-76
2021/04/26 10:58:52;;;;;;;5.93;2.10;;;12.40;67.00;;;;;;4956554;28;20185;-77
2021/04/26 11:01:44;;;;;;;3.73;2.10;;;12.80;64.90;;;;;;4956665;28;20480;-77
2021/04/26 11:04:09;;;;;;;3.63;1.70;;;12.80;64.10;;;;;;4955797;28;20933;-78
2021/04/26 11:06:35;;;;;;;3.53;2.00;;;13.00;65.90;;;;;;4974450;28;20461;-77
2021/04/26 11:09:12;;;;;;;5.10;1.93;;;12.50;64.40;;;;;;4956280;28;20186;-77
2021/04/26 11:11:51;;;;;;;4.30;1.70;;;12.30;64.40;;;;;;4956080;28;20205;-77
2021/04/26 11:14:22;;;;;;;1.93;1.67;;;12.20;63.50;;;;;;4956818;28;20450;-78
2021/04/26 11:16:56;;;;;;;5.90;1.93;;;12.40;64.80;;;;;;4975000;28;20410;-77
2021/04/26 11:19:22;;;;;;;3.70;1.93;;;12.40;63.10;;;;;;4956290;28;20501;-78
2021/04/26 11:21:47;;;;;;;3.20;2.00;;;12.50;62.50;;;;;;4957696;28;20442;-77
2021/04/26 11:24:33;;;;;;;2.30;1.67;;;12.50;62.10;;;;;;4955603;28;20576;-77
2021/04/26 11:27:08;;;;;;;8.50;2.07;;;12.60;64.50;;;;;;4955991;28;20688;-76
2021/04/26 11:29:55;;;;;;;2.63;1.80;;;13.00;64.60;;;;;;4973829;28;20413;-77
2021/04/26 11:32:22;;;;;;;2.30;1.80;;;13.30;65.20;;;;;;4945851;28;20522;-77
2021/04/26 11:34:48;;;;;;;3.63;1.90;;;13.60;65.90;;;;;;4956259;28;20421;-77
2021/04/26 11:37:15;;;;;;;2.17;1.70;;;13.80;64.80;;;;;;4955833;28;20429;-77
2021/04/26 11:39:41;;;;;;;5.23;1.80;;;13.80;63.00;;;;;;4972871;28;20209;-78
2021/04/26 11:42:08;;;;;;;4.77;2.00;;;14.10;64.90;;;;;;4956003;28;20442;-77
2021/04/26 11:44:39;;;;;;;3.47;1.80;;;14.20;63.10;;;;;;4973148;28;20462;-77
2021/04/26 11:47:10;;;;;;;3.10;1.87;;;14.20;63.90;;;;;;4973573;28;20458;-77
2021/04/26 11:49:44;;;;;;;2.87;1.70;;;14.50;63.20;;;;;;4955093;28;20422;-77
2021/04/26 11:52:12;;;;;;;2.93;1.97;;;14.50;59.60;;;;;;4956087;28;20847;-77
2021/04/26 11:54:38;;;;;;;2.93;2.00;;;14.30;61.50;;;;;;4955906;28;20418;-76
2021/04/26 11:57:16;;;;;;;3.10;1.83;;;14.30;61.80;;;;;;4955191;28;20422;-77
2021/04/26 11:59:52;;;;;;;2.80;2.00;;;14.00;63.70;;;;;;4956326;28;20433;-79
2021/04/26 12:02:42;;;;;;;3.53;2.17;;;13.50;63.40;;;;;;4955650;28;20441;-79
2021/04/26 12:05:21;;;;;;;5.40;2.83;;;12.80;62.70;;;;;;4955444;28;20440;-77
2021/04/26 12:07:48;;;;;;;6.60;2.60;;;12.20;64.00;;;;;;4955571;28;21022;-77
2021/04/26 12:10:16;;;;;;;2.13;1.70;;;12.10;63.00;;;;;;4954774;28;20520;-77
2021/04/26 12:12:43;;;;;;;3.63;2.00;;;12.50;64.10;;;;;;4955652;28;20418;-77
2021/04/26 12:15:18;;;;;;;5.63;2.10;;;13.20;64.70;;;;;;4972695;28;20414;-77
2021/04/26 12:17:47;;;;;;;2.27;1.80;;;13.70;61.60;;;;;;4955394;28;20476;-77
2021/04/26 12:20:15;;;;;;;2.70;2.00;;;14.10;61.30;;;;;;4972918;28;20432;-77
2021/04/26 12:22:42;;;;;;;3.20;1.90;;;14.40;62.80;;;;;;4958047;28;20508;-77
2021/04/26 12:25:09;;;;;;;3.63;1.90;;;14.60;60.00;;;;;;4958712;28;20421;-77
2021/04/26 12:27:36;;;;;;;2.27;1.87;;;14.70;59.60;;;;;;4976920;28;20489;-77
2021/04/26 12:30:23;;;;;;;1.93;1.80;;;15.10;61.80;;;;;;4959587;28;20533;-78
2021/04/26 12:32:50;;;;;;;2.33;1.97;;;15.50;62.30;;;;;;4959597;28;20445;-77
2021/04/26 12:35:24;;;;;;;3.20;1.77;;;15.70;60.60;;;;;;4960232;28;20770;-78
2021/04/26 12:37:51;;;;;;;2.73;1.80;;;15.20;59.00;;;;;;4959214;28;20426;-76
2021/04/26 12:40:27;;;;;;;3.13;1.97;;;14.60;61.90;;;;;;4959198;28;20982;-77
2021/04/26 12:43:01;;;;;;;3.63;1.83;;;14.40;61.50;;;;;;4959949;28;20432;-77
2021/04/26 12:45:29;;;;;;;2.03;1.87;;;14.20;62.20;;;;;;4958330;28;20992;-77
2021/04/26 12:48:11;;;;;;;2.50;1.90;;;14.10;61.00;;;;;;4946683;29;20435;-77
2021/04/26 12:50:42;;;;;;;3.70;2.03;;;14.10;60.40;;;;;;4939638;29;20509;-77
2021/04/26 12:53:10;;;;;;;2.90;1.73;;;14.40;63.90;;;;;;4939708;29;20413;-78
2021/04/26 12:55:38;;;;;;;3.33;1.70;;;14.70;60.40;;;;;;4940834;29;20834;-78
2021/04/26 12:58:12;;;;;;;3.83;2.00;;;14.40;57.50;;;;;;4939824;29;20763;-77
2021/04/26 13:00:40;;;;;;;3.13;1.97;;;14.30;58.90;;;;;;4939358;29;20470;-77
2021/04/26 13:03:31;;;;;;;6.33;1.80;;;14.50;60.90;;;;;;4957006;29;20414;-77
2021/04/26 13:06:18;;;;;;;1.80;1.67;;;14.40;60.10;;;;;;4956632;29;20485;-77